AirNav   Air Wisconsin pilot careers
 
 346 users online  

8MD5 Flying H Farm Airport
Libertytown, Maryland, USA

GOING TO LIBERTYTOWN?


FAA INFORMATION EFFECTIVE 01 FEBRUARY 2018

Location

FAA Identifier: 8MD5
Lat/Long: 39-29-54.0000N / 077-13-18.0000W
39-29.900000N / 077-13.300000W
39.4983333 / -77.2216667
(estimated)
Elevation: 610 ft. / 186 m (estimated)
Variation: 10W (1995)
From city: 2 miles NE of LIBERTYTOWN, MD
Time zone: UTC -5 (UTC -4 during Daylight Saving Time)
Zip code: 21791

Airport Operations

Airport use: Private use. Permission required prior to landing
Activation date: 07/1999
Control tower: no
ARTCC: WASHINGTON CENTER
FSS: LEESBURG FLIGHT SERVICE STATION
Attendance: UNATNDD
Wind indicator: yes
Segmented circle: yes

Airport Communications

UNICOM: 123.075
WX AWOS-3 at FDK (9 nm SW): 124.875 (301-600-1457)
WX AWOS-3 at DMW (12 nm NE): 121.25 (410-876-1281)
WX AWOS-3PT at GAI (20 nm S): 128.275 (301-977-2971)

Nearby radio navigation aids

VOR radial/distance  VOR name  Freq  Var
FDKr062/(8.8)FREDERICK VOR109.0008W
EMIr279/11.3WESTMINSTER VORTAC117.9008W
MRBr084/29.8MARTINSBURG VORTAC112.1007W
HGRr119/(31.7)HAGERSTOWN VOR109.8007W
BALr318/32.6BALTIMORE VORTAC115.1011W
AMLr027/35.7ARMEL VOR/DME113.5008W
DCAr356/39.3WASHINGTON VOR/DME111.0009W

 
NDB name  Hdg/Dist  Freq  Var  ID
ELLICOTT313/24.237111WFND ..-. -. -..
GEORGETOWN001/34.432309WGTN --. - -.

Airport Services

Runway Information

Runway 18/36

Dimensions: 2000 x 50 ft. / 610 x 15 m
Surface: turf
RUNWAY 18  RUNWAY 36
Traffic pattern: leftright
Obstructions: 30 ft. pline, marked, 363 ft. from runwaynone

Airport Ownership and Management from official FAA records

Ownership: Privately-owned
Owner: FRANCIS E HARRISON
9608 B FOUNTAIN SCHOOL RD
UNION BRIDGE, MD 21791
Phone 301-829-0181
Manager: CHRISTIE HARRISON
9608 C FOUNTAIN SCHOOL RD
UNION BRIDGE, MD 21791
Phone 301-639-0747

Airport Operational Statistics

Aircraft based on the field: 6
Single engine airplanes: 1
Ultralights: 5
    

Instrument Procedures

There are no published instrument procedures at 8MD5.

Some nearby airports with instrument procedures:

KFDK - Frederick Municipal Airport (9 nm SW)
2W2 - Clearview Airpark (10 nm E)
KDMW - Carroll County Regional Airport/Jack B Poage Field (12 nm NE)
W50 - Davis Airport (16 nm S)
KGAI - Montgomery County Airpark (20 nm S)
 
Loc | Ops | Rwys | IFR | FBO | Links
Com | Nav | Svcs | Stats | Notes

AirNav Hotels Sweepstakes
 
Area around 8MD5 (Flying H Farm Airport)
 
Road maps at: MapQuest Bing Google
 
Aerial photo
WARNING: Photo may not be current or correct
Aerial photo of 8MD5 (Flying H Farm Airport)
Do you have a better or more recent aerial photo of Flying H Farm Airport that you would like to share? If so, please send us your photo.

 
Sectional chart

 
Airport distance calculator
Flying to Flying H Farm Airport? Find the distance to fly.

From to 8MD5

Sunrise and sunset
Times for 23-Feb-2018
 Local
(UTC-5)
 Zulu
(UTC)
Morning civil twilight06:2411:24
Sunrise06:5211:52
Sunset17:5322:53
Evening civil twilight18:2023:20

Current date and time
Zulu (UTC)  23-Feb-2018 07:20:33
Local (UTC-5)  23-Feb-2018 02:20:33
 
METAR
KFDK 
8nm SW 
230655Z AUTO 04004KT 5SM -RA BKN009 OVC014 05/05 A3062 RMK AO2 P0001
KDMW 
12nm NE 
230655Z AUTO 12003KT 7SM BKN006 OVC011 04/04 A3057 RMK AO2
KGAI 
20nm S 
230656Z AUTO 11006KT 5SM -RA BR OVC009 04/03 A3058 RMK AO2 RAB00E13B46 CIG 007V012 SLP389 P0000 T00390028
TAF
KBWI 
32nm SE 
230545Z 2306/2412 08007KT 3SM -RADZ BR OVC008 FM230900 07005KT 2SM -RADZ BR OVC008 FM231200 08006KT 1 1/2SM -RA BR OVC008 FM231300 08006KT 1SM -RA BR OVC003 FM232000 13004KT 1SM BR OVC003 FM240300 20004KT 4SM BR OVC008
KIAD 
36nm S 
230545Z 2306/2412 08007KT P6SM OVC010 FM230800 08006KT 2SM -RADZ BR OVC003 FM231200 09005KT 1 1/2SM -RA BR OVC003 FM231800 15006KT 1SM BR OVC003 FM240000 18005KT 3SM BR OVC015 FM240600 21004KT 3SM BR OVC008
KMRB 
36nm W 
230545Z 2306/2406 08004KT 3SM -RADZ BR OVC004 FM231200 12004KT 1 1/2SM -RA BR OVC003 FM231800 15006KT 1 1/2SM BR OVC003 FM240000 16004KT 3SM BR OVC015 FM240400 17004KT 3SM BR OVC008
KMTN 
39nm E 
230119Z 2301/2324 05009KT P6SM OVC015 FM230600 06006KT 3SM -RADZ BR OVC008 FM231200 08006KT 1 1/2SM -RA BR OVC008 FM232000 VRB03KT 1SM BR OVC003 AMD NOT SKED 2302/2312
KDCA 
40nm S 
230545Z 2306/2412 07007KT P6SM OVC010 FM230800 08007KT 3SM -RADZ BR OVC008 FM231200 08006KT 1 1/2SM -RA BR OVC003 FM231800 12004KT 1SM BR OVC003 FM232300 18005KT 3SM BR OVC003 FM240300 20006KT 3SM BR BKN008 FM240500 21005KT 3SM BR OVC008 WS020/24035KT
NOTAMs
Click for the latest NOTAMs
NOTAMs are issued by the DoD/FAA and will open in a separate window not controlled by AirNav.

 

 
 

Would you like to see your business listed on this page?

 If your business provides an interesting product or service to pilots, flight crews, aircraft, or users of the Flying H Farm Airport, you should consider listing it here.  To start the listing process, click on the button below
 
Add a business
 

Other Pages about Flying H Farm Airport

Update a link
 
Copyright © AirNav, LLC. All rights reserved. Privacy Policy  Contact